ESOW

Stockholm Västerås Airport

Stockholm / Västerås, Sweden
METAR ESOW 231450Z 05009KT 020V090 CAVOK 19/04 Q1027
Observed Flight Rules
May-23 @ 14:50 UTC (15 minutes ago) Visual Flight Rules
Wind Visibility Clouds
50° at 9 knots 10,000+ meters
  • Clear skies
Temperatures Readings
Current 19°C / 66°F
Dewpoint 4°C / 39°F
Humidity 37%
Altimeter 30.32" Hg
Pressure 1027 hPa
Elevation 31
METAR ESOW 231450Z 05009KT 020V090 CAVOK 19/04 Q1027
Observed Flight Rules
May-23 @ 14:50 UTC
(15 minutes ago)
VFR
Wind Visibility
50° at 9 knots 10,000+ meters
Clouds
  • Clear skies
Temperature Dewpoint
19°C / 66°F 4°C / 39°F
Humidity Altimeter Pressure
37% 30.32" Hg 1027 hPa